sensor_id;sensor_type;location;lat;lon;timestamp;P1;durP1;ratioP1;P2;durP2;ratioP2
57989;SDS011;58373;51.824;5.564;2022-08-11T00:00:43;5.93;;;3.05;;
57989;SDS011;58373;51.824;5.564;2022-08-11T00:03:12;5.05;;;2.97;;
57989;SDS011;58373;51.824;5.564;2022-08-11T00:05:51;5.53;;;3.00;;
57989;SDS011;58373;51.824;5.564;2022-08-11T00:08:20;6.93;;;3.17;;
57989;SDS011;58373;51.824;5.564;2022-08-11T00:10:51;6.03;;;2.72;;
57989;SDS011;58373;51.824;5.564;2022-08-11T00:13:28;5.45;;;2.85;;
57989;SDS011;58373;51.824;5.564;2022-08-11T00:15:59;6.47;;;3.08;;
57989;SDS011;58373;51.824;5.564;2022-08-11T00:18:25;5.60;;;2.88;;
57989;SDS011;58373;51.824;5.564;2022-08-11T00:20:51;5.25;;;3.33;;
57989;SDS011;58373;51.824;5.564;2022-08-11T00:23:23;5.63;;;3.13;;
57989;SDS011;58373;51.824;5.564;2022-08-11T00:25:50;5.70;;;3.33;;
57989;SDS011;58373;51.824;5.564;2022-08-11T00:30:56;6.18;;;3.47;;
57989;SDS011;58373;51.824;5.564;2022-08-11T00:33:53;6.80;;;3.65;;
57989;SDS011;58373;51.824;5.564;2022-08-11T00:36:18;8.05;;;3.60;;
57989;SDS011;58373;51.824;5.564;2022-08-11T00:38:48;6.28;;;3.53;;
57989;SDS011;58373;51.824;5.564;2022-08-11T00:47:12;7.10;;;3.55;;
57989;SDS011;58373;51.824;5.564;2022-08-11T00:49:44;7.97;;;3.42;;
57989;SDS011;58373;51.824;5.564;2022-08-11T00:52:58;7.32;;;3.53;;
57989;SDS011;58373;51.824;5.564;2022-08-11T00:55:30;8.13;;;3.60;;
57989;SDS011;58373;51.824;5.564;2022-08-11T01:37:56;7.35;;;4.00;;
57989;SDS011;58373;51.824;5.564;2022-08-11T01:46:48;6.63;;;4.07;;
57989;SDS011;58373;51.824;5.564;2022-08-11T01:49:23;8.13;;;4.47;;
57989;SDS011;58373;51.824;5.564;2022-08-11T01:54:43;7.18;;;3.88;;
57989;SDS011;58373;51.824;5.564;2022-08-11T02:00:18;8.43;;;3.97;;
57989;SDS011;58373;51.824;5.564;2022-08-11T02:11:29;7.18;;;4.20;;
57989;SDS011;58373;51.824;5.564;2022-08-11T02:28:01;6.85;;;4.25;;
57989;SDS011;58373;51.824;5.564;2022-08-11T02:30:38;7.15;;;4.30;;
57989;SDS011;58373;51.824;5.564;2022-08-11T02:33:36;6.40;;;4.45;;
57989;SDS011;58373;51.824;5.564;2022-08-11T02:39:08;6.35;;;4.10;;
57989;SDS011;58373;51.824;5.564;2022-08-11T02:47:47;7.70;;;4.50;;
57989;SDS011;58373;51.824;5.564;2022-08-11T03:10:12;7.32;;;4.85;;
57989;SDS011;58373;51.824;5.564;2022-08-11T03:15:45;6.32;;;4.47;;
57989;SDS011;58373;51.824;5.564;2022-08-11T03:18:55;6.45;;;4.47;;
57989;SDS011;58373;51.824;5.564;2022-08-11T03:21:34;7.57;;;5.00;;
57989;SDS011;58373;51.824;5.564;2022-08-11T03:24:10;9.48;;;5.00;;
57989;SDS011;58373;51.824;5.564;2022-08-11T03:29:29;8.00;;;4.80;;
57989;SDS011;58373;51.824;5.564;2022-08-11T03:34:27;7.82;;;4.80;;
57989;SDS011;58373;51.824;5.564;2022-08-11T03:37:17;6.90;;;4.85;;
57989;SDS011;58373;51.824;5.564;2022-08-11T04:17:00;7.32;;;5.10;;
57989;SDS011;58373;51.824;5.564;2022-08-11T04:39:15;6.43;;;5.00;;
57989;SDS011;58373;51.824;5.564;2022-08-11T04:48:38;7.90;;;5.38;;
57989;SDS011;58373;51.824;5.564;2022-08-11T04:57:30;8.13;;;5.50;;
57989;SDS011;58373;51.824;5.564;2022-08-11T05:00:24;7.97;;;5.50;;
57989;SDS011;58373;51.824;5.564;2022-08-11T05:09:10;7.47;;;5.57;;
57989;SDS011;58373;51.824;5.564;2022-08-11T05:12:48;9.52;;;5.82;;
57989;SDS011;58373;51.824;5.564;2022-08-11T05:14:50;7.75;;;5.50;;
57989;SDS011;58373;51.824;5.564;2022-08-11T05:17:36;7.22;;;5.28;;
57989;SDS011;58373;51.824;5.564;2022-08-11T05:20:27;9.15;;;5.18;;
57989;SDS011;58373;51.824;5.564;2022-08-11T05:23:12;7.20;;;5.25;;
57989;SDS011;58373;51.824;5.564;2022-08-11T05:25:58;7.55;;;5.28;;
57989;SDS011;58373;51.824;5.564;2022-08-11T05:28:54;9.60;;;5.23;;
57989;SDS011;58373;51.824;5.564;2022-08-11T05:31:45;8.13;;;5.75;;
57989;SDS011;58373;51.824;5.564;2022-08-11T05:34:40;8.30;;;5.57;;
57989;SDS011;58373;51.824;5.564;2022-08-11T05:39:59;9.13;;;5.28;;
57989;SDS011;58373;51.824;5.564;2022-08-11T05:42:49;7.50;;;5.63;;
57989;SDS011;58373;51.824;5.564;2022-08-11T05:45:38;7.07;;;5.40;;
57989;SDS011;58373;51.824;5.564;2022-08-11T05:48:23;6.97;;;5.40;;
57989;SDS011;58373;51.824;5.564;2022-08-11T05:51:16;10.60;;;6.03;;
57989;SDS011;58373;51.824;5.564;2022-08-11T05:54:00;8.98;;;5.78;;
57989;SDS011;58373;51.824;5.564;2022-08-11T05:56:49;8.40;;;5.82;;
57989;SDS011;58373;51.824;5.564;2022-08-11T05:59:18;8.75;;;5.93;;
57989;SDS011;58373;51.824;5.564;2022-08-11T06:01:47;9.75;;;5.70;;
57989;SDS011;58373;51.824;5.564;2022-08-11T06:04:20;9.20;;;5.88;;
57989;SDS011;58373;51.824;5.564;2022-08-11T06:09:20;8.20;;;5.35;;
57989;SDS011;58373;51.824;5.564;2022-08-11T06:11:48;9.30;;;5.70;;
57989;SDS011;58373;51.824;5.564;2022-08-11T06:14:14;9.15;;;5.78;;
57989;SDS011;58373;51.824;5.564;2022-08-11T06:16:40;8.27;;;5.47;;
57989;SDS011;58373;51.824;5.564;2022-08-11T06:19:07;10.02;;;5.93;;
57989;SDS011;58373;51.824;5.564;2022-08-11T06:21:33;12.57;;;5.90;;
57989;SDS011;58373;51.824;5.564;2022-08-11T06:24:01;8.60;;;5.63;;
57989;SDS011;58373;51.824;5.564;2022-08-11T06:26:29;9.52;;;5.55;;
57989;SDS011;58373;51.824;5.564;2022-08-11T06:28:55;7.90;;;5.72;;
57989;SDS011;58373;51.824;5.564;2022-08-11T06:31:23;9.93;;;5.63;;
57989;SDS011;58373;51.824;5.564;2022-08-11T06:36:15;12.23;;;6.25;;
57989;SDS011;58373;51.824;5.564;2022-08-11T06:41:45;10.57;;;5.60;;
57989;SDS011;58373;51.824;5.564;2022-08-11T06:44:37;10.00;;;5.60;;
57989;SDS011;58373;51.824;5.564;2022-08-11T06:47:09;10.93;;;5.65;;
57989;SDS011;58373;51.824;5.564;2022-08-11T06:49:38;10.25;;;5.55;;
57989;SDS011;58373;51.824;5.564;2022-08-11T06:52:31;7.93;;;5.03;;
57989;SDS011;58373;51.824;5.564;2022-08-11T06:55:44;6.93;;;5.00;;
57989;SDS011;58373;51.824;5.564;2022-08-11T06:58:12;9.93;;;5.40;;
57989;SDS011;58373;51.824;5.564;2022-08-11T07:01:00;8.27;;;5.10;;
57989;SDS011;58373;51.824;5.564;2022-08-11T07:03:31;11.25;;;6.10;;
57989;SDS011;58373;51.824;5.564;2022-08-11T07:15:07;10.80;;;5.07;;
57989;SDS011;58373;51.824;5.564;2022-08-11T07:17:53;9.00;;;5.03;;
57989;SDS011;58373;51.824;5.564;2022-08-11T07:20:42;9.38;;;5.38;;
57989;SDS011;58373;51.824;5.564;2022-08-11T07:23:27;9.63;;;5.00;;
57989;SDS011;58373;51.824;5.564;2022-08-11T07:26:16;7.07;;;4.80;;
57989;SDS011;58373;51.824;5.564;2022-08-11T07:29:04;8.35;;;5.00;;
57989;SDS011;58373;51.824;5.564;2022-08-11T07:31:34;7.82;;;4.78;;
57989;SDS011;58373;51.824;5.564;2022-08-11T07:36:49;11.05;;;4.82;;
57989;SDS011;58373;51.824;5.564;2022-08-11T07:39:26;9.00;;;4.88;;
57989;SDS011;58373;51.824;5.564;2022-08-11T07:41:56;7.63;;;4.93;;
57989;SDS011;58373;51.824;5.564;2022-08-11T07:44:23;6.40;;;4.07;;
57989;SDS011;58373;51.824;5.564;2022-08-11T07:46:53;6.97;;;4.47;;
57989;SDS011;58373;51.824;5.564;2022-08-11T07:49:38;8.43;;;4.35;;
57989;SDS011;58373;51.824;5.564;2022-08-11T07:52:24;9.35;;;4.30;;
57989;SDS011;58373;51.824;5.564;2022-08-11T07:55:02;6.53;;;4.15;;
57989;SDS011;58373;51.824;5.564;2022-08-11T07:57:29;6.50;;;3.90;;
57989;SDS011;58373;51.824;5.564;2022-08-11T08:00:14;5.35;;;4.10;;
57989;SDS011;58373;51.824;5.564;2022-08-11T08:02:59;8.13;;;4.07;;
57989;SDS011;58373;51.824;5.564;2022-08-11T08:05:45;8.23;;;4.10;;
57989;SDS011;58373;51.824;5.564;2022-08-11T08:08:30;7.38;;;4.00;;
57989;SDS011;58373;51.824;5.564;2022-08-11T08:11:15;7.03;;;3.55;;
57989;SDS011;58373;51.824;5.564;2022-08-11T08:14:02;6.90;;;3.53;;
57989;SDS011;58373;51.824;5.564;2022-08-11T08:16:46;6.68;;;3.42;;
57989;SDS011;58373;51.824;5.564;2022-08-11T08:19:30;8.05;;;3.65;;
57989;SDS011;58373;51.824;5.564;2022-08-11T08:21:57;7.03;;;3.70;;
57989;SDS011;58373;51.824;5.564;2022-08-11T08:24:23;8.90;;;3.90;;
57989;SDS011;58373;51.824;5.564;2022-08-11T08:26:49;5.28;;;3.45;;
57989;SDS011;58373;51.824;5.564;2022-08-11T08:29:34;6.57;;;3.20;;
57989;SDS011;58373;51.824;5.564;2022-08-11T08:32:20;4.95;;;3.40;;
57989;SDS011;58373;51.824;5.564;2022-08-11T08:34:47;8.23;;;3.67;;
57989;SDS011;58373;51.824;5.564;2022-08-11T08:37:16;9.23;;;3.70;;
57989;SDS011;58373;51.824;5.564;2022-08-11T08:39:44;6.50;;;3.30;;
57989;SDS011;58373;51.824;5.564;2022-08-11T08:42:11;9.77;;;3.67;;
57989;SDS011;58373;51.824;5.564;2022-08-11T08:44:41;5.97;;;3.00;;
57989;SDS011;58373;51.824;5.564;2022-08-11T08:47:15;7.70;;;3.20;;
57989;SDS011;58373;51.824;5.564;2022-08-11T08:49:47;7.90;;;3.28;;
57989;SDS011;58373;51.824;5.564;2022-08-11T08:52:18;5.72;;;3.33;;
57989;SDS011;58373;51.824;5.564;2022-08-11T08:54:47;8.63;;;3.63;;
57989;SDS011;58373;51.824;5.564;2022-08-11T08:57:18;7.78;;;3.28;;
57989;SDS011;58373;51.824;5.564;2022-08-11T08:59:46;6.47;;;3.30;;
57989;SDS011;58373;51.824;5.564;2022-08-11T09:02:14;6.82;;;3.10;;
57989;SDS011;58373;51.824;5.564;2022-08-11T09:04:43;8.02;;;3.10;;
57989;SDS011;58373;51.824;5.564;2022-08-11T09:07:14;6.28;;;3.22;;
57989;SDS011;58373;51.824;5.564;2022-08-11T09:09:46;5.82;;;3.20;;
57989;SDS011;58373;51.824;5.564;2022-08-11T09:12:13;6.22;;;3.38;;
57989;SDS011;58373;51.824;5.564;2022-08-11T09:14:40;6.00;;;3.25;;
57989;SDS011;58373;51.824;5.564;2022-08-11T09:17:26;6.00;;;3.35;;
57989;SDS011;58373;51.824;5.564;2022-08-11T09:20:08;6.47;;;3.22;;
57989;SDS011;58373;51.824;5.564;2022-08-11T09:22:46;6.38;;;3.70;;
57989;SDS011;58373;51.824;5.564;2022-08-11T09:25:32;6.40;;;3.03;;
57989;SDS011;58373;51.824;5.564;2022-08-11T09:28:17;6.07;;;3.17;;
57989;SDS011;58373;51.824;5.564;2022-08-11T09:33:13;9.77;;;3.28;;
57989;SDS011;58373;51.824;5.564;2022-08-11T09:35:40;4.90;;;3.30;;
57989;SDS011;58373;51.824;5.564;2022-08-11T09:38:12;6.40;;;3.30;;
57989;SDS011;58373;51.824;5.564;2022-08-11T09:41:00;7.10;;;3.10;;
57989;SDS011;58373;51.824;5.564;2022-08-11T09:43:29;7.00;;;2.90;;
57989;SDS011;58373;51.824;5.564;2022-08-11T09:46:15;9.82;;;3.47;;
57989;SDS011;58373;51.824;5.564;2022-08-11T09:48:46;6.07;;;3.40;;
57989;SDS011;58373;51.824;5.564;2022-08-11T09:51:12;8.38;;;3.40;;
57989;SDS011;58373;51.824;5.564;2022-08-11T09:53:41;6.50;;;3.50;;
57989;SDS011;58373;51.824;5.564;2022-08-11T09:56:18;6.35;;;3.25;;
57989;SDS011;58373;51.824;5.564;2022-08-11T09:59:05;9.50;;;3.30;;
57989;SDS011;58373;51.824;5.564;2022-08-11T10:02:05;5.00;;;3.17;;
57989;SDS011;58373;51.824;5.564;2022-08-11T10:04:40;7.28;;;3.00;;
57989;SDS011;58373;51.824;5.564;2022-08-11T10:07:12;8.10;;;3.08;;
57989;SDS011;58373;51.824;5.564;2022-08-11T10:12:12;7.93;;;3.20;;
57989;SDS011;58373;51.824;5.564;2022-08-11T10:14:44;9.20;;;3.38;;
57989;SDS011;58373;51.824;5.564;2022-08-11T10:17:32;5.23;;;3.00;;
57989;SDS011;58373;51.824;5.564;2022-08-11T10:20:02;6.03;;;3.20;;
57989;SDS011;58373;51.824;5.564;2022-08-11T10:22:32;5.82;;;3.05;;
57989;SDS011;58373;51.824;5.564;2022-08-11T10:25:17;5.68;;;2.92;;
57989;SDS011;58373;51.824;5.564;2022-08-11T10:28:03;6.28;;;2.83;;
57989;SDS011;58373;51.824;5.564;2022-08-11T10:30:32;5.15;;;2.90;;
57989;SDS011;58373;51.824;5.564;2022-08-11T10:33:16;6.93;;;2.90;;
57989;SDS011;58373;51.824;5.564;2022-08-11T10:36:02;41.95;;;5.63;;
57989;SDS011;58373;51.824;5.564;2022-08-11T10:40:55;6.65;;;2.88;;
57989;SDS011;58373;51.824;5.564;2022-08-11T10:43:40;5.60;;;3.22;;
57989;SDS011;58373;51.824;5.564;2022-08-11T10:46:08;6.88;;;3.38;;
57989;SDS011;58373;51.824;5.564;2022-08-11T10:48:53;5.10;;;3.00;;
57989;SDS011;58373;51.824;5.564;2022-08-11T10:54:05;6.70;;;2.85;;
57989;SDS011;58373;51.824;5.564;2022-08-11T10:56:49;4.38;;;2.90;;
57989;SDS011;58373;51.824;5.564;2022-08-11T10:59:35;3.35;;;2.47;;
57989;SDS011;58373;51.824;5.564;2022-08-11T11:02:01;8.43;;;3.05;;
57989;SDS011;58373;51.824;5.564;2022-08-11T11:04:32;4.60;;;3.00;;
57989;SDS011;58373;51.824;5.564;2022-08-11T11:07:46;6.13;;;2.97;;
57989;SDS011;58373;51.824;5.564;2022-08-11T11:10:16;4.70;;;2.90;;
57989;SDS011;58373;51.824;5.564;2022-08-11T11:12:45;5.05;;;2.90;;
57989;SDS011;58373;51.824;5.564;2022-08-11T11:15:34;4.75;;;2.67;;
57989;SDS011;58373;51.824;5.564;2022-08-11T11:18:29;5.60;;;3.05;;
57989;SDS011;58373;51.824;5.564;2022-08-11T11:21:09;5.07;;;2.80;;
57989;SDS011;58373;51.824;5.564;2022-08-11T11:29:56;5.18;;;3.00;;
57989;SDS011;58373;51.824;5.564;2022-08-11T11:35:18;5.95;;;3.05;;
57989;SDS011;58373;51.824;5.564;2022-08-11T11:37:47;6.32;;;3.05;;
57989;SDS011;58373;51.824;5.564;2022-08-11T11:40:15;5.65;;;3.03;;
57989;SDS011;58373;51.824;5.564;2022-08-11T11:42:45;7.38;;;3.00;;
57989;SDS011;58373;51.824;5.564;2022-08-11T11:45:19;6.15;;;2.80;;
57989;SDS011;58373;51.824;5.564;2022-08-11T11:47:51;7.18;;;3.13;;
57989;SDS011;58373;51.824;5.564;2022-08-11T11:50:27;6.45;;;3.10;;
57989;SDS011;58373;51.824;5.564;2022-08-11T11:52:59;6.07;;;3.15;;
57989;SDS011;58373;51.824;5.564;2022-08-11T11:55:26;6.10;;;3.05;;
57989;SDS011;58373;51.824;5.564;2022-08-11T11:57:52;3.83;;;2.60;;
57989;SDS011;58373;51.824;5.564;2022-08-11T12:00:37;4.65;;;3.00;;
57989;SDS011;58373;51.824;5.564;2022-08-11T12:03:23;6.65;;;2.95;;
57989;SDS011;58373;51.824;5.564;2022-08-11T12:05:50;4.27;;;2.97;;
57989;SDS011;58373;51.824;5.564;2022-08-11T12:08:17;4.03;;;2.80;;
57989;SDS011;58373;51.824;5.564;2022-08-11T12:13:40;3.45;;;2.78;;
57989;SDS011;58373;51.824;5.564;2022-08-11T12:16:10;6.25;;;2.85;;
57989;SDS011;58373;51.824;5.564;2022-08-11T12:18:37;6.65;;;3.13;;
57989;SDS011;58373;51.824;5.564;2022-08-11T12:21:05;6.68;;;2.83;;
57989;SDS011;58373;51.824;5.564;2022-08-11T12:23:33;5.53;;;2.83;;
57989;SDS011;58373;51.824;5.564;2022-08-11T12:26:18;4.80;;;2.70;;
57989;SDS011;58373;51.824;5.564;2022-08-11T12:29:04;4.97;;;2.80;;
57989;SDS011;58373;51.824;5.564;2022-08-11T12:31:32;6.32;;;2.88;;
57989;SDS011;58373;51.824;5.564;2022-08-11T12:36:55;4.72;;;2.75;;
57989;SDS011;58373;51.824;5.564;2022-08-11T12:39:23;5.05;;;3.10;;
57989;SDS011;58373;51.824;5.564;2022-08-11T12:42:12;5.03;;;2.80;;
57989;SDS011;58373;51.824;5.564;2022-08-11T12:44:59;5.85;;;2.92;;
57989;SDS011;58373;51.824;5.564;2022-08-11T12:47:45;5.35;;;2.83;;
57989;SDS011;58373;51.824;5.564;2022-08-11T12:50:33;5.50;;;2.78;;
57989;SDS011;58373;51.824;5.564;2022-08-11T12:53:19;3.15;;;2.53;;
57989;SDS011;58373;51.824;5.564;2022-08-11T12:55:50;4.80;;;2.80;;
57989;SDS011;58373;51.824;5.564;2022-08-11T12:58:36;6.00;;;3.03;;
57989;SDS011;58373;51.824;5.564;2022-08-11T13:01:05;5.20;;;2.83;;
57989;SDS011;58373;51.824;5.564;2022-08-11T13:03:49;5.18;;;2.88;;
57989;SDS011;58373;51.824;5.564;2022-08-11T13:06:34;5.47;;;3.03;;
57989;SDS011;58373;51.824;5.564;2022-08-11T13:09:01;6.13;;;2.90;;
57989;SDS011;58373;51.824;5.564;2022-08-11T13:11:27;4.20;;;2.70;;
57989;SDS011;58373;51.824;5.564;2022-08-11T13:14:12;4.70;;;2.55;;
57989;SDS011;58373;51.824;5.564;2022-08-11T13:19:25;3.17;;;2.35;;
57989;SDS011;58373;51.824;5.564;2022-08-11T13:21:51;5.20;;;2.53;;
57989;SDS011;58373;51.824;5.564;2022-08-11T13:24:17;5.00;;;2.72;;
57989;SDS011;58373;51.824;5.564;2022-08-11T13:26:44;4.45;;;2.70;;
57989;SDS011;58373;51.824;5.564;2022-08-11T13:29:11;5.73;;;2.60;;
57989;SDS011;58373;51.824;5.564;2022-08-11T13:34:06;5.72;;;2.65;;
57989;SDS011;58373;51.824;5.564;2022-08-11T13:36:33;5.80;;;2.70;;
57989;SDS011;58373;51.824;5.564;2022-08-11T13:38:59;5.20;;;2.63;;
57989;SDS011;58373;51.824;5.564;2022-08-11T13:41:27;5.57;;;2.83;;
57989;SDS011;58373;51.824;5.564;2022-08-11T13:44:07;5.47;;;2.75;;
57989;SDS011;58373;51.824;5.564;2022-08-11T13:46:36;6.90;;;2.75;;
57989;SDS011;58373;51.824;5.564;2022-08-11T13:49:02;4.38;;;2.42;;
57989;SDS011;58373;51.824;5.564;2022-08-11T13:51:31;4.30;;;2.58;;
57989;SDS011;58373;51.824;5.564;2022-08-11T13:54:02;3.35;;;2.20;;
57989;SDS011;58373;51.824;5.564;2022-08-11T13:56:30;4.93;;;2.50;;
57989;SDS011;58373;51.824;5.564;2022-08-11T13:58:57;4.50;;;2.25;;
57989;SDS011;58373;51.824;5.564;2022-08-11T14:03:53;5.22;;;2.30;;
57989;SDS011;58373;51.824;5.564;2022-08-11T14:06:20;3.33;;;2.40;;
57989;SDS011;58373;51.824;5.564;2022-08-11T14:08:47;4.40;;;2.60;;
57989;SDS011;58373;51.824;5.564;2022-08-11T14:11:15;5.15;;;2.38;;
57989;SDS011;58373;51.824;5.564;2022-08-11T14:13:59;4.82;;;2.28;;
57989;SDS011;58373;51.824;5.564;2022-08-11T14:16:30;6.68;;;2.45;;
57989;SDS011;58373;51.824;5.564;2022-08-11T14:19:02;4.82;;;2.20;;
57989;SDS011;58373;51.824;5.564;2022-08-11T14:21:31;4.70;;;2.33;;
57989;SDS011;58373;51.824;5.564;2022-08-11T14:24:19;4.78;;;2.58;;
57989;SDS011;58373;51.824;5.564;2022-08-11T14:26:46;3.53;;;2.42;;
57989;SDS011;58373;51.824;5.564;2022-08-11T14:29:18;5.93;;;2.50;;
57989;SDS011;58373;51.824;5.564;2022-08-11T14:31:49;5.25;;;2.15;;
57989;SDS011;58373;51.824;5.564;2022-08-11T14:34:20;4.68;;;2.22;;
57989;SDS011;58373;51.824;5.564;2022-08-11T14:36:52;5.03;;;2.10;;
57989;SDS011;58373;51.824;5.564;2022-08-11T14:39:26;4.93;;;2.30;;
57989;SDS011;58373;51.824;5.564;2022-08-11T14:41:59;3.93;;;2.23;;
57989;SDS011;58373;51.824;5.564;2022-08-11T14:44:46;4.60;;;2.25;;
57989;SDS011;58373;51.824;5.564;2022-08-11T14:47:34;3.90;;;2.20;;
57989;SDS011;58373;51.824;5.564;2022-08-11T14:50:01;5.25;;;2.30;;
57989;SDS011;58373;51.824;5.564;2022-08-11T14:52:28;5.13;;;2.33;;
57989;SDS011;58373;51.824;5.564;2022-08-11T14:54:56;5.82;;;2.58;;
57989;SDS011;58373;51.824;5.564;2022-08-11T14:57:42;4.20;;;2.50;;
57989;SDS011;58373;51.824;5.564;2022-08-11T15:00:09;4.70;;;2.20;;
57989;SDS011;58373;51.824;5.564;2022-08-11T15:02:39;4.28;;;2.30;;
57989;SDS011;58373;51.824;5.564;2022-08-11T15:05:25;6.40;;;2.55;;
57989;SDS011;58373;51.824;5.564;2022-08-11T15:07:53;5.07;;;2.13;;
57989;SDS011;58373;51.824;5.564;2022-08-11T15:10:19;3.80;;;2.30;;
57989;SDS011;58373;51.824;5.564;2022-08-11T15:12:46;4.65;;;2.30;;
57989;SDS011;58373;51.824;5.564;2022-08-11T15:15:12;3.78;;;2.25;;
57989;SDS011;58373;51.824;5.564;2022-08-11T15:17:59;6.93;;;2.42;;
57989;SDS011;58373;51.824;5.564;2022-08-11T15:20:27;6.85;;;2.28;;
57989;SDS011;58373;51.824;5.564;2022-08-11T15:23:12;4.93;;;2.35;;
57989;SDS011;58373;51.824;5.564;2022-08-11T15:26:13;5.35;;;2.35;;
57989;SDS011;58373;51.824;5.564;2022-08-11T15:28:50;3.80;;;2.13;;
57989;SDS011;58373;51.824;5.564;2022-08-11T15:31:35;2.80;;;2.20;;
57989;SDS011;58373;51.824;5.564;2022-08-11T15:34:23;6.82;;;2.70;;
57989;SDS011;58373;51.824;5.564;2022-08-11T15:37:21;4.53;;;2.35;;
57989;SDS011;58373;51.824;5.564;2022-08-11T15:42:50;3.83;;;2.30;;
57989;SDS011;58373;51.824;5.564;2022-08-11T15:45:47;4.18;;;2.28;;
57989;SDS011;58373;51.824;5.564;2022-08-11T15:48:40;4.15;;;2.40;;
57989;SDS011;58373;51.824;5.564;2022-08-11T15:51:25;4.45;;;2.30;;
57989;SDS011;58373;51.824;5.564;2022-08-11T15:53:57;4.13;;;2.42;;
57989;SDS011;58373;51.824;5.564;2022-08-11T15:56:28;6.00;;;2.50;;
57989;SDS011;58373;51.824;5.564;2022-08-11T15:58:57;3.33;;;2.45;;
57989;SDS011;58373;51.824;5.564;2022-08-11T16:01:45;3.72;;;2.55;;
57989;SDS011;58373;51.824;5.564;2022-08-11T16:04:32;4.55;;;2.40;;
57989;SDS011;58373;51.824;5.564;2022-08-11T16:07:02;5.90;;;2.33;;
57989;SDS011;58373;51.824;5.564;2022-08-11T16:09:35;4.22;;;2.45;;
57989;SDS011;58373;51.824;5.564;2022-08-11T16:12:05;4.07;;;2.42;;
57989;SDS011;58373;51.824;5.564;2022-08-11T16:14:35;5.90;;;2.70;;
57989;SDS011;58373;51.824;5.564;2022-08-11T16:17:23;4.95;;;2.53;;
57989;SDS011;58373;51.824;5.564;2022-08-11T16:19:51;3.75;;;2.10;;
57989;SDS011;58373;51.824;5.564;2022-08-11T16:22:26;6.05;;;2.42;;
57989;SDS011;58373;51.824;5.564;2022-08-11T16:25:07;5.40;;;2.08;;
57989;SDS011;58373;51.824;5.564;2022-08-11T16:27:36;6.70;;;2.30;;
57989;SDS011;58373;51.824;5.564;2022-08-11T16:30:04;3.20;;;2.08;;
57989;SDS011;58373;51.824;5.564;2022-08-11T16:32:31;5.03;;;2.35;;
57989;SDS011;58373;51.824;5.564;2022-08-11T16:35:00;3.58;;;2.20;;
57989;SDS011;58373;51.824;5.564;2022-08-11T16:37:48;3.40;;;2.20;;
57989;SDS011;58373;51.824;5.564;2022-08-11T16:40:34;3.20;;;2.10;;
57989;SDS011;58373;51.824;5.564;2022-08-11T16:45:48;5.15;;;2.40;;
57989;SDS011;58373;51.824;5.564;2022-08-11T16:48:33;3.25;;;2.22;;
57989;SDS011;58373;51.824;5.564;2022-08-11T16:51:00;4.53;;;2.10;;
57989;SDS011;58373;51.824;5.564;2022-08-11T16:53:29;3.38;;;2.20;;
57989;SDS011;58373;51.824;5.564;2022-08-11T16:55:56;3.92;;;2.38;;
57989;SDS011;58373;51.824;5.564;2022-08-11T16:58:27;5.18;;;2.08;;
57989;SDS011;58373;51.824;5.564;2022-08-11T17:01:13;5.25;;;2.13;;
57989;SDS011;58373;51.824;5.564;2022-08-11T17:03:42;4.65;;;2.15;;
57989;SDS011;58373;51.824;5.564;2022-08-11T17:06:31;3.95;;;2.13;;
57989;SDS011;58373;51.824;5.564;2022-08-11T17:09:17;5.40;;;2.35;;
57989;SDS011;58373;51.824;5.564;2022-08-11T17:12:06;4.25;;;2.00;;
57989;SDS011;58373;51.824;5.564;2022-08-11T17:14:54;5.00;;;2.23;;
57989;SDS011;58373;51.824;5.564;2022-08-11T17:17:26;4.15;;;2.17;;
57989;SDS011;58373;51.824;5.564;2022-08-11T17:19:58;4.25;;;2.00;;
57989;SDS011;58373;51.824;5.564;2022-08-11T17:22:27;3.95;;;2.63;;
57989;SDS011;58373;51.824;5.564;2022-08-11T17:25:13;3.33;;;2.13;;
57989;SDS011;58373;51.824;5.564;2022-08-11T17:27:41;3.28;;;2.00;;
57989;SDS011;58373;51.824;5.564;2022-08-11T17:30:08;4.63;;;2.27;;
57989;SDS011;58373;51.824;5.564;2022-08-11T17:32:36;6.13;;;2.40;;
57989;SDS011;58373;51.824;5.564;2022-08-11T17:35:26;5.15;;;2.40;;
57989;SDS011;58373;51.824;5.564;2022-08-11T17:37:57;5.25;;;2.38;;
57989;SDS011;58373;51.824;5.564;2022-08-11T17:40:36;4.10;;;2.28;;
57989;SDS011;58373;51.824;5.564;2022-08-11T17:43:24;4.13;;;2.20;;
57989;SDS011;58373;51.824;5.564;2022-08-11T17:46:09;4.30;;;2.25;;
57989;SDS011;58373;51.824;5.564;2022-08-11T17:48:53;4.22;;;2.20;;
57989;SDS011;58373;51.824;5.564;2022-08-11T17:51:20;3.97;;;2.40;;
57989;SDS011;58373;51.824;5.564;2022-08-11T17:54:05;4.47;;;2.10;;
57989;SDS011;58373;51.824;5.564;2022-08-11T17:56:52;4.03;;;2.15;;
57989;SDS011;58373;51.824;5.564;2022-08-11T17:59:38;3.22;;;2.08;;
57989;SDS011;58373;51.824;5.564;2022-08-11T18:02:18;4.30;;;2.30;;
57989;SDS011;58373;51.824;5.564;2022-08-11T18:05:04;5.10;;;2.17;;
57989;SDS011;58373;51.824;5.564;2022-08-11T18:07:30;3.72;;;2.20;;
57989;SDS011;58373;51.824;5.564;2022-08-11T18:10:16;4.72;;;2.10;;
57989;SDS011;58373;51.824;5.564;2022-08-11T18:13:01;5.78;;;2.10;;
57989;SDS011;58373;51.824;5.564;2022-08-11T18:15:45;5.63;;;2.30;;
57989;SDS011;58373;51.824;5.564;2022-08-11T18:18:30;4.07;;;2.30;;
57989;SDS011;58373;51.824;5.564;2022-08-11T18:21:14;5.53;;;2.65;;
57989;SDS011;58373;51.824;5.564;2022-08-11T18:24:01;5.50;;;2.50;;
57989;SDS011;58373;51.824;5.564;2022-08-11T18:26:50;7.70;;;2.47;;
57989;SDS011;58373;51.824;5.564;2022-08-11T18:29:35;3.58;;;2.40;;
57989;SDS011;58373;51.824;5.564;2022-08-11T18:32:24;3.33;;;2.28;;
57989;SDS011;58373;51.824;5.564;2022-08-11T18:35:10;3.78;;;2.65;;
57989;SDS011;58373;51.824;5.564;2022-08-11T18:37:56;6.07;;;2.40;;
57989;SDS011;58373;51.824;5.564;2022-08-11T18:40:43;4.00;;;2.30;;
57989;SDS011;58373;51.824;5.564;2022-08-11T18:43:33;6.03;;;2.55;;
57989;SDS011;58373;51.824;5.564;2022-08-11T18:49:07;5.75;;;2.65;;
57989;SDS011;58373;51.824;5.564;2022-08-11T18:51:54;5.10;;;2.53;;
57989;SDS011;58373;51.824;5.564;2022-08-11T18:54:40;4.00;;;2.60;;
57989;SDS011;58373;51.824;5.564;2022-08-11T18:57:27;5.50;;;2.22;;
57989;SDS011;58373;51.824;5.564;2022-08-11T19:00:12;6.50;;;2.70;;
57989;SDS011;58373;51.824;5.564;2022-08-11T19:02:57;6.07;;;2.45;;
57989;SDS011;58373;51.824;5.564;2022-08-11T19:05:43;5.70;;;2.80;;
57989;SDS011;58373;51.824;5.564;2022-08-11T19:08:32;5.07;;;2.55;;
57989;SDS011;58373;51.824;5.564;2022-08-11T19:11:19;6.85;;;2.47;;
57989;SDS011;58373;51.824;5.564;2022-08-11T19:14:07;5.95;;;2.88;;
57989;SDS011;58373;51.824;5.564;2022-08-11T19:16:52;8.77;;;3.40;;
57989;SDS011;58373;51.824;5.564;2022-08-11T19:19:39;6.45;;;3.15;;
57989;SDS011;58373;51.824;5.564;2022-08-11T19:22:25;7.47;;;3.58;;
57989;SDS011;58373;51.824;5.564;2022-08-11T19:25:11;7.22;;;3.28;;
57989;SDS011;58373;51.824;5.564;2022-08-11T19:27:56;6.45;;;3.20;;
57989;SDS011;58373;51.824;5.564;2022-08-11T19:30:41;7.47;;;3.53;;
57989;SDS011;58373;51.824;5.564;2022-08-11T19:33:25;8.25;;;2.78;;
57989;SDS011;58373;51.824;5.564;2022-08-11T19:36:11;6.78;;;2.72;;
57989;SDS011;58373;51.824;5.564;2022-08-11T19:38:55;5.57;;;2.63;;
57989;SDS011;58373;51.824;5.564;2022-08-11T19:41:40;5.88;;;2.65;;
57989;SDS011;58373;51.824;5.564;2022-08-11T19:44:25;5.47;;;2.50;;
57989;SDS011;58373;51.824;5.564;2022-08-11T19:47:11;4.90;;;2.42;;
57989;SDS011;58373;51.824;5.564;2022-08-11T19:49:58;5.00;;;2.50;;
57989;SDS011;58373;51.824;5.564;2022-08-11T19:52:42;6.20;;;2.63;;
57989;SDS011;58373;51.824;5.564;2022-08-11T19:55:27;5.68;;;2.83;;
57989;SDS011;58373;51.824;5.564;2022-08-11T19:58:13;5.45;;;2.42;;
57989;SDS011;58373;51.824;5.564;2022-08-11T20:00:58;5.47;;;2.58;;
57989;SDS011;58373;51.824;5.564;2022-08-11T20:03:42;7.05;;;2.70;;
57989;SDS011;58373;51.824;5.564;2022-08-11T20:06:27;5.95;;;2.80;;
57989;SDS011;58373;51.824;5.564;2022-08-11T20:09:12;5.70;;;2.75;;